Time;durP1;ratioP1;P1;durP2;ratioP2;P2;SDS_P1;SDS_P2;PMS_P1;PMS_P2;Temp;Humidity;BMP_temperature;BMP_pressure;BME280_temperature;BME280_humidity;BME280_pressure;Samples;Min_cycle;Max_cycle;Signal;HPM_P1;HPM_P2
2023/07/19 00:00:06;;;;;;;1.60;0.40;;;;;;;18.77;77.79;100059.79;91120;1270;138538;-60
2023/07/19 00:02:14;;;;;;;0.30;0.30;;;;;;;18.82;78.89;100059.34;91201;1270;22329;-59
2023/07/19 00:04:15;;;;;;;3.90;0.50;;;;;;;18.86;77.45;100058.91;91134;1270;137532;-61
2023/07/19 00:06:17;;;;;;;4.50;0.30;;;;;;;18.85;78.69;100058.04;91065;1272;22294;-60
2023/07/19 00:08:19;;;;;;;1.60;1.00;;;;;;;18.88;78.86;100057.84;91132;1271;138005;-61
2023/07/19 00:10:20;;;;;;;2.20;0.50;;;;;;;18.90;78.43;100057.49;91120;1271;22574;-61
2023/07/19 00:12:22;;;;;;;3.60;0.30;;;;;;;18.90;78.42;100051.99;91083;1271;139139;-59
2023/07/19 00:14:23;;;;;;;0.80;0.60;;;;;;;18.87;76.65;100052.50;91066;1270;23279;-62
2023/07/19 00:16:25;;;;;;;3.10;0.30;;;;;;;18.75;76.69;100049.13;91064;1265;138516;-61
2023/07/19 00:18:27;;;;;;;0.70;0.20;;;;;;;18.62;77.52;100044.84;91260;1271;22945;-61
2023/07/19 00:20:28;;;;;;;1.20;0.70;;;;;;;18.50;77.39;100043.45;91122;1271;139655;-61
2023/07/19 00:22:32;;;;;;;1.40;0.60;;;;;;;18.40;77.05;100044.42;91158;1274;22963;-60
2023/07/19 00:24:33;;;;;;;1.50;0.70;;;;;;;18.29;76.86;100041.39;91072;1270;137481;-60
2023/07/19 00:26:35;;;;;;;0.90;0.80;;;;;;;18.19;79.00;100044.80;91269;1271;22224;-61
2023/07/19 00:28:37;;;;;;;1.70;0.60;;;;;;;18.18;80.12;100045.10;91103;1271;139835;-59
2023/07/19 00:30:38;;;;;;;4.10;0.80;;;;;;;18.18;80.11;100046.09;91235;1270;22221;-61
2023/07/19 00:32:40;;;;;;;2.70;0.50;;;;;;;18.17;80.76;100046.16;91138;1278;139547;-62
2023/07/19 00:34:42;;;;;;;1.00;0.90;;;;;;;18.17;84.34;100050.16;91113;1260;22350;-61
2023/07/19 00:36:44;;;;;;;0.80;0.70;;;;;;;18.28;88.08;100054.27;91018;1267;138589;-61
2023/07/19 00:38:46;;;;;;;1.70;1.10;;;;;;;18.55;87.22;100058.93;91156;1271;22132;-60
2023/07/19 00:40:49;;;;;;;1.10;0.90;;;;;;;18.84;85.62;100060.98;91040;1274;138619;-60
2023/07/19 00:42:57;;;;;;;0.70;0.70;;;;;;;19.12;83.90;100061.30;91226;1270;22376;-60
2023/07/19 00:44:59;;;;;;;1.30;1.20;;;;;;;19.37;81.78;100062.13;91140;1271;138112;-61
2023/07/19 00:47:02;;;;;;;0.80;0.30;;;;;;;19.55;79.72;100064.42;91230;1271;22354;-59
2023/07/19 00:49:05;;;;;;;0.90;0.80;;;;;;;19.63;77.96;100063.64;91006;1271;138566;-60
2023/07/19 00:51:06;;;;;;;2.00;0.90;;;;;;;19.63;77.02;100064.29;91201;1271;23033;-60
2023/07/19 00:53:11;;;;;;;2.20;0.70;;;;;;;19.60;76.97;100064.20;91143;1271;138677;-60
2023/07/19 00:55:13;;;;;;;2.30;0.80;;;;;;;19.54;77.36;100061.05;91089;1272;22336;-59
2023/07/19 00:57:15;;;;;;;2.40;0.90;;;;;;;19.52;77.36;100063.05;91155;1267;138378;-60
2023/07/19 00:59:19;;;;;;;3.00;0.80;;;;;;;19.53;76.68;100063.90;91184;1270;22378;-59
2023/07/19 01:01:22;;;;;;;1.00;0.70;;;;;;;19.52;75.60;100062.71;91014;1260;139205;-60
2023/07/19 01:03:24;;;;;;;1.00;0.90;;;;;;;19.45;76.14;100062.48;91208;1271;22340;-59
2023/07/19 01:05:27;;;;;;;1.20;1.00;;;;;;;19.40;77.62;100065.07;91050;1270;138216;-61
2023/07/19 01:07:29;;;;;;;2.60;0.40;;;;;;;19.47;79.49;100064.34;91271;1271;22433;-59
2023/07/19 01:09:31;;;;;;;5.30;0.60;;;;;;;19.57;78.30;100065.46;90989;1260;139835;-59
2023/07/19 01:11:34;;;;;;;1.60;0.80;;;;;;;19.62;77.99;100064.07;91134;1267;22316;-62
2023/07/19 01:13:36;;;;;;;3.40;0.30;;;;;;;19.68;78.92;100063.20;91039;1269;139377;-60
2023/07/19 01:15:40;;;;;;;0.60;0.50;;;;;;;19.78;77.13;100059.11;91243;1271;22275;-60
2023/07/19 01:17:41;;;;;;;2.10;0.80;;;;;;;19.78;76.34;100057.77;91028;1271;138264;-60
2023/07/19 01:19:44;;;;;;;0.60;0.40;;;;;;;19.73;77.20;100056.50;91207;1271;22285;-61
2023/07/19 01:21:48;;;;;;;1.80;0.70;;;;;;;19.74;77.71;100059.98;91157;1272;139189;-61
2023/07/19 01:23:50;;;;;;;1.70;0.60;;;;;;;19.78;77.40;100058.80;91211;1270;22356;-59
2023/07/19 01:25:53;;;;;;;0.50;0.50;;;;;;;19.88;77.26;100056.49;91140;1274;137953;-60
2023/07/19 01:27:55;;;;;;;0.70;0.50;;;;;;;19.98;75.75;100052.09;91244;1270;22189;-67
2023/07/19 01:29:56;;;;;;;0.80;0.50;;;;;;;20.03;75.07;100051.80;91130;1267;137452;-59
2023/07/19 01:31:58;;;;;;;0.50;0.50;;;;;;;20.03;74.81;100051.88;91242;1271;23075;-59
2023/07/19 01:34:00;;;;;;;0.40;0.40;;;;;;;20.03;74.28;100052.63;91104;1270;137447;-59
2023/07/19 01:36:01;;;;;;;0.80;0.30;;;;;;;20.01;73.73;100054.29;91240;1271;22877;-59
2023/07/19 01:38:03;;;;;;;2.30;0.70;;;;;;;19.90;73.53;100049.96;91108;1271;137447;-59
2023/07/19 01:40:06;;;;;;;0.80;0.40;;;;;;;19.81;73.97;100050.77;91098;1271;139269;-60
2023/07/19 01:42:07;;;;;;;2.90;0.40;;;;;;;19.79;74.97;100046.63;91195;1270;22152;-58
2023/07/19 01:44:09;;;;;;;0.50;0.30;;;;;;;19.87;74.05;100042.42;91119;1271;137675;-61
2023/07/19 01:46:11;;;;;;;2.50;0.40;;;;;;;19.88;73.60;100041.73;91212;1270;22489;-59
2023/07/19 01:48:13;;;;;;;2.00;0.50;;;;;;;19.84;73.36;100043.48;91092;1271;137748;-60
2023/07/19 01:50:16;;;;;;;0.70;0.50;;;;;;;19.74;72.92;100041.86;91227;1274;22303;-62
2023/07/19 01:52:18;;;;;;;1.30;0.80;;;;;;;19.59;73.96;100038.19;91093;1259;139564;-59
2023/07/19 01:54:20;;;;;;;2.10;0.40;;;;;;;19.48;74.60;100040.61;91207;1274;22900;-60
2023/07/19 01:56:22;;;;;;;0.70;0.60;;;;;;;19.36;75.49;100038.50;91149;1278;142495;-60
2023/07/19 01:58:23;;;;;;;0.40;0.40;;;;;;;19.31;76.27;100037.52;91169;1271;22307;-59
2023/07/19 02:00:25;;;;;;;0.90;0.50;;;;;;;19.29;75.88;100037.71;91050;1270;138351;-60
2023/07/19 02:02:27;;;;;;;0.60;0.40;;;;;;;19.21;76.01;100037.25;91239;1270;22976;-59
2023/07/19 02:04:29;;;;;;;1.70;0.80;;;;;;;19.10;77.59;100038.48;91115;1270;138075;-64
2023/07/19 02:06:31;;;;;;;0.60;0.60;;;;;;;19.09;78.09;100035.53;91221;1272;22286;-59
2023/07/19 02:08:33;;;;;;;0.80;0.70;;;;;;;19.08;77.07;100036.66;91068;1279;138631;-60
2023/07/19 02:10:34;;;;;;;4.00;1.00;;;;;;;18.98;77.12;100038.00;91223;1258;22694;-61
2023/07/19 02:12:36;;;;;;;0.60;0.50;;;;;;;18.84;78.03;100029.23;91089;1270;139371;-60
2023/07/19 02:14:39;;;;;;;1.00;0.60;;;;;;;18.80;80.04;100034.36;91214;1265;22403;-59
2023/07/19 02:16:40;;;;;;;1.10;1.00;;;;;;;18.85;79.49;100033.73;91112;1270;139033;-60
2023/07/19 02:18:42;;;;;;;1.10;0.80;;;;;;;18.87;79.01;100035.06;91093;1258;22311;-59
2023/07/19 02:20:48;;;;;;;1.00;0.60;;;;;;;18.85;80.43;100032.77;91098;1271;139484;-62
2023/07/19 02:22:50;;;;;;;1.00;0.60;;;;;;;18.91;80.67;100032.95;91135;1271;22411;-59
2023/07/19 02:24:52;;;;;;;0.60;0.60;;;;;;;19.03;80.32;100032.86;91043;1271;139102;-61
2023/07/19 02:26:54;;;;;;;0.60;0.60;;;;;;;19.18;79.55;100035.27;91258;1271;22975;-60
2023/07/19 02:28:55;;;;;;;0.80;0.80;;;;;;;19.31;78.19;100039.03;91096;1270;138111;-60
2023/07/19 02:30:57;;;;;;;0.70;0.70;;;;;;;19.37;76.99;100037.16;91212;1271;22498;-60
2023/07/19 02:32:58;;;;;;;1.40;0.80;;;;;;;19.40;76.58;100038.06;91065;1260;138500;-59
2023/07/19 02:35:01;;;;;;;1.40;0.90;;;;;;;19.42;75.60;100038.29;91214;1270;22508;-64
2023/07/19 02:37:02;;;;;;;1.30;1.10;;;;;;;19.38;76.52;100038.73;91083;1270;137281;-59
2023/07/19 02:39:04;;;;;;;1.60;1.10;;;;;;;19.39;76.50;100038.15;91171;1271;22313;-59
2023/07/19 02:41:07;;;;;;;4.70;0.90;;;;;;;19.42;75.81;100038.50;91066;1271;137796;-60
2023/07/19 02:43:09;;;;;;;1.90;1.10;;;;;;;19.39;76.18;100039.56;91129;1258;22236;-60
2023/07/19 02:45:12;;;;;;;1.80;1.10;;;;;;;19.45;76.80;100037.89;91023;1260;137533;-61
2023/07/19 02:47:13;;;;;;;1.30;0.90;;;;;;;19.60;76.17;100038.36;91233;1271;22334;-60
2023/07/19 02:49:15;;;;;;;2.70;0.80;;;;;;;19.74;75.08;100040.27;91095;1271;138382;-61
2023/07/19 02:51:18;;;;;;;0.90;0.80;;;;;;;19.85;73.71;100041.55;91195;1271;22194;-59
2023/07/19 02:53:20;;;;;;;2.70;1.10;;;;;;;19.92;73.21;100042.25;91104;1272;138664;-59
2023/07/19 02:55:22;;;;;;;2.70;0.90;;;;;;;19.96;72.13;100042.84;91152;1261;22359;-59
2023/07/19 02:57:23;;;;;;;1.20;1.10;;;;;;;19.98;72.07;100043.88;91040;1270;139304;-60
2023/07/19 02:59:25;;;;;;;2.30;1.30;;;;;;;20.04;71.38;100044.90;91247;1270;22288;-60
2023/07/19 03:01:27;;;;;;;4.50;0.60;;;;;;;20.20;71.02;100045.71;91077;1271;141025;-59
2023/07/19 03:03:29;;;;;;;2.40;0.90;;;;;;;20.54;71.04;100048.23;91135;1271;22352;-60
2023/07/19 03:05:34;;;;;;;1.90;0.60;;;;;;;21.07;68.80;100042.83;91073;1270;137809;-59
2023/07/19 03:07:37;;;;;;;3.50;0.80;;;;;;;21.63;66.48;100040.28;91234;1271;23153;-59
2023/07/19 03:09:39;;;;;;;4.50;0.50;;;;;;;22.16;63.70;100031.81;91078;1260;138979;-60
2023/07/19 03:11:41;;;;;;;0.60;0.40;;;;;;;22.71;60.98;100036.88;91023;1263;22224;-59
2023/07/19 03:13:43;;;;;;;2.60;0.50;;;;;;;23.24;59.02;100034.79;91081;1271;137734;-60
2023/07/19 03:15:46;;;;;;;2.10;0.50;;;;;;;23.72;57.17;100029.86;91126;1268;22252;-60
2023/07/19 03:17:48;;;;;;;4.00;0.50;;;;;;;24.17;55.38;100024.63;91233;1270;138515;-60
2023/07/19 03:19:50;;;;;;;1.30;0.40;;;;;;;24.62;53.55;100027.08;91279;1259;22430;-60
2023/07/19 03:21:51;;;;;;;3.60;0.70;;;;;;;25.03;52.18;100029.36;91186;1259;137424;-60
2023/07/19 03:23:53;;;;;;;1.00;0.90;;;;;;;25.43;50.97;100027.94;91407;1270;22215;-58
2023/07/19 03:25:57;;;;;;;3.90;1.50;;;;;;;25.76;49.76;100027.65;91196;1269;138559;-60
2023/07/19 03:27:59;;;;;;;14.30;4.80;;;;;;;26.04;48.97;100028.64;91355;1269;22204;-59
2023/07/19 03:30:01;;;;;;;4.00;1.10;;;;;;;26.31;47.86;100026.14;91274;1269;137746;-60
2023/07/19 03:32:03;;;;;;;2.90;0.40;;;;;;;26.53;46.75;100032.73;91158;1272;138979;-60
2023/07/19 03:34:06;;;;;;;3.70;0.80;;;;;;;26.68;45.92;100030.72;91404;1270;22392;-60
2023/07/19 03:36:07;;;;;;;1.00;0.70;;;;;;;26.81;45.25;100031.27;91282;1269;141151;-62
2023/07/19 03:38:09;;;;;;;2.30;1.10;;;;;;;26.88;44.03;100029.55;91146;1261;22235;-61
2023/07/19 03:40:12;;;;;;;2.80;0.60;;;;;;;26.81;43.91;100030.68;91069;1271;137734;-63
2023/07/19 03:42:13;;;;;;;1.60;0.80;;;;;;;26.69;43.90;100029.83;91233;1270;22337;-66
2023/07/19 03:44:17;;;;;;;1.50;0.60;;;;;;;26.62;43.13;100028.48;91079;1271;139068;-62
2023/07/19 03:46:18;;;;;;;3.00;0.90;;;;;;;26.50;42.83;100029.84;91281;1270;22224;-61
2023/07/19 03:48:21;;;;;;;0.90;0.60;;;;;;;26.44;43.47;100031.42;91049;1272;138006;-59
2023/07/19 03:50:24;;;;;;;3.00;0.70;;;;;;;26.48;42.97;100032.44;90988;1263;22310;-60
2023/07/19 03:52:26;;;;;;;2.70;1.30;;;;;;;26.48;43.63;100019.01;91080;1271;137964;-61
2023/07/19 03:54:28;;;;;;;3.70;1.40;;;;;;;26.70;43.49;100025.50;91120;1270;22288;-61
2023/07/19 03:56:30;;;;;;;2.00;1.20;;;;;;;26.89;42.42;100022.27;91003;1273;137646;-61
2023/07/19 03:58:32;;;;;;;8.20;2.50;;;;;;;27.06;41.53;100015.84;91186;1271;22391;-60
2023/07/19 04:00:35;;;;;;;1.50;1.20;;;;;;;27.17;40.55;99998.88;91050;1260;138463;-63
2023/07/19 04:02:36;;;;;;;1.20;0.60;;;;;;;27.23;40.63;99991.25;90833;1270;22139;-61
2023/07/19 04:04:38;;;;;;;3.30;1.20;;;;;;;27.47;40.60;100003.50;91099;1269;138412;-60
2023/07/19 04:06:40;;;;;;;3.00;0.80;;;;;;;27.85;39.72;100013.91;91193;1269;22353;-63
2023/07/19 04:08:42;;;;;;;1.30;0.60;;;;;;;28.12;38.62;100013.90;91085;1269;137748;-61
2023/07/19 04:10:44;;;;;;;2.90;0.80;;;;;;;28.13;38.77;100015.23;91113;1265;22279;-60
2023/07/19 04:12:46;;;;;;;0.80;0.70;;;;;;;28.15;38.83;100015.50;90985;1270;137888;-62
2023/07/19 04:14:48;;;;;;;2.40;1.10;;;;;;;28.24;38.20;100012.61;91202;1270;22416;-61
2023/07/19 04:16:53;;;;;;;2.80;0.80;;;;;;;28.21;37.91;100014.50;91054;1259;139955;-62
2023/07/19 04:18:54;;;;;;;1.30;1.00;;;;;;;28.18;37.60;100014.12;91178;1267;22321;-60
2023/07/19 04:20:57;;;;;;;3.10;2.90;;;;;;;28.11;37.88;100018.48;91140;1270;137439;-61
2023/07/19 04:22:59;;;;;;;3.40;3.00;;;;;;;28.07;38.13;100019.70;91152;1270;22216;-62
2023/07/19 04:25:01;;;;;;;4.70;2.80;;;;;;;28.18;38.10;100020.08;91132;1269;137150;-61
2023/07/19 04:27:04;;;;;;;3.20;2.90;;;;;;;28.37;37.80;100019.20;91151;1266;22316;-61
2023/07/19 04:29:06;;;;;;;3.20;3.00;;;;;;;28.54;37.18;100019.08;91026;1262;137720;-67
2023/07/19 04:31:07;;;;;;;2.10;1.00;;;;;;;28.58;36.81;100018.84;91121;1259;22187;-62
2023/07/19 04:33:10;;;;;;;2.40;2.20;;;;;;;28.58;37.01;100016.37;90982;1271;139160;-62
2023/07/19 04:35:12;;;;;;;1.30;1.20;;;;;;;28.69;36.73;100015.82;91153;1269;22327;-61
2023/07/19 04:37:14;;;;;;;3.70;2.90;;;;;;;28.85;36.02;100016.29;90973;1271;138326;-67
2023/07/19 04:39:16;;;;;;;2.30;1.80;;;;;;;28.94;35.99;100016.38;91108;1271;22320;-67
2023/07/19 04:41:19;;;;;;;5.80;2.40;;;;;;;29.06;35.69;100014.98;90993;1261;137889;-63
2023/07/19 04:43:21;;;;;;;2.50;1.00;;;;;;;29.24;35.42;100013.35;91133;1270;23341;-60
2023/07/19 04:45:27;;;;;;;1.20;0.90;;;;;;;29.45;35.07;100014.10;91071;1259;137831;-61
2023/07/19 04:47:29;;;;;;;3.70;1.80;;;;;;;29.61;34.67;100012.41;91168;1261;22393;-63
2023/07/19 04:49:31;;;;;;;1.70;0.80;;;;;;;29.74;34.16;100013.40;91143;1272;137552;-62
2023/07/19 04:51:33;;;;;;;5.80;1.70;;;;;;;29.84;34.15;100008.67;91131;1261;22214;-64
2023/07/19 04:53:35;;;;;;;1.50;0.60;;;;;;;29.98;34.05;100006.28;90997;1262;137603;-63
2023/07/19 04:55:38;;;;;;;4.50;0.50;;;;;;;30.11;33.40;100007.66;91096;1265;22335;-61
2023/07/19 04:57:39;;;;;;;2.70;0.30;;;;;;;30.09;33.64;100011.61;91109;1269;138444;-65
2023/07/19 04:59:42;;;;;;;1.10;0.40;;;;;;;29.99;33.44;100004.52;91121;1263;22373;-64
2023/07/19 05:01:44;;;;;;;2.50;0.40;;;;;;;29.90;34.09;100000.61;91041;1271;138917;-62
2023/07/19 05:03:46;;;;;;;1.20;0.60;;;;;;;29.91;33.74;100001.19;90976;1273;22974;-63
2023/07/19 05:05:48;;;;;;;2.70;0.40;;;;;;;29.89;33.52;99996.47;91055;1270;137557;-62
2023/07/19 05:07:51;;;;;;;3.00;0.30;;;;;;;29.83;33.34;99995.80;91111;1270;22343;-62
2023/07/19 05:09:52;;;;;;;2.70;0.60;;;;;;;29.73;33.20;99996.06;91045;1270;137466;-61
2023/07/19 05:11:54;;;;;;;1.00;0.40;;;;;;;29.58;33.74;99990.05;91194;1261;22319;-64
2023/07/19 05:13:56;;;;;;;1.80;0.60;;;;;;;29.48;33.82;99998.89;91029;1270;137220;-61
2023/07/19 05:15:59;;;;;;;0.60;0.20;;;;;;;29.42;34.19;100001.75;91099;1270;22351;-62
2023/07/19 05:18:01;;;;;;;1.30;0.30;;;;;;;29.40;34.13;99999.59;90870;1268;139750;-63
2023/07/19 05:20:05;;;;;;;0.60;0.20;;;;;;;29.38;33.90;100000.70;91037;1261;22411;-62
2023/07/19 05:22:07;;;;;;;;;;;;;;;29.38;33.56;100002.52;91144;1268;23099;-63
2023/07/19 05:24:09;;;;;;;1.20;0.20;;;;;;;29.30;33.81;100004.95;91135;1266;126261;-62
2023/07/19 05:26:11;;;;;;;2.20;0.50;;;;;;;29.18;33.93;100005.52;91133;1258;22359;-64
2023/07/19 05:28:12;;;;;;;0.60;0.50;;;;;;;29.16;33.49;100009.05;91135;1269;138429;-62
2023/07/19 05:30:15;;;;;;;0.90;0.60;;;;;;;29.09;34.21;100002.08;91247;1269;22326;-61
2023/07/19 05:32:16;;;;;;;1.30;0.60;;;;;;;29.21;33.71;100007.05;91001;1271;137528;-61
2023/07/19 05:34:18;;;;;;;5.00;1.10;;;;;;;29.16;33.37;100006.84;91299;1269;22124;-62
2023/07/19 05:36:19;;;;;;;6.00;3.00;;;;;;;29.05;33.57;100008.81;91151;1269;138707;-62
2023/07/19 05:38:21;;;;;;;1.50;0.40;;;;;;;29.06;33.90;100008.33;91125;1260;22398;-63
2023/07/19 05:40:23;;;;;;;2.30;2.10;;;;;;;29.19;33.53;100010.11;91115;1269;140708;-64
2023/07/19 05:42:25;;;;;;;1.40;1.30;;;;;;;29.24;33.38;100009.96;91235;1269;22320;-63
2023/07/19 05:44:27;;;;;;;2.20;2.10;;;;;;;29.32;33.36;100009.23;91183;1269;137401;-63
2023/07/19 05:46:28;;;;;;;0.80;0.70;;;;;;;29.40;32.68;100007.48;91235;1269;22328;-63
2023/07/19 05:48:30;;;;;;;4.80;0.90;;;;;;;29.33;32.95;100005.41;91046;1270;137268;-63
2023/07/19 05:50:32;;;;;;;1.10;1.00;;;;;;;29.23;33.14;100004.44;91168;1270;22291;-64
2023/07/19 05:52:33;;;;;;;1.60;1.20;;;;;;;29.23;32.73;100004.43;91135;1269;138106;-63
2023/07/19 05:54:35;;;;;;;2.30;0.60;;;;;;;29.25;32.71;100002.89;91344;1269;22297;-63
2023/07/19 05:56:37;;;;;;;4.50;0.50;;;;;;;29.23;32.46;99998.68;91098;1269;137568;-63
2023/07/19 05:58:38;;;;;;;1.70;0.40;;;;;;;29.14;32.68;99998.51;91222;1270;22211;-63
2023/07/19 06:00:41;;;;;;;3.10;0.40;;;;;;;28.98;32.46;99989.70;91152;1270;137581;-62
2023/07/19 06:02:42;;;;;;;2.70;0.70;;;;;;;29.00;33.09;99989.79;91267;1269;23158;-64
2023/07/19 06:04:55;;;;;;;1.70;0.40;;;;;;;29.20;32.71;99997.05;91199;1269;137711;-63
2023/07/19 06:06:57;;;;;;;1.30;0.30;;;;;;;29.27;32.42;99996.56;91109;1269;22413;-62
2023/07/19 06:09:01;;;;;;;2.70;0.40;;;;;;;29.24;32.35;99998.33;91172;1269;139264;-63
2023/07/19 06:11:03;;;;;;;2.00;0.50;;;;;;;29.12;32.39;99992.52;91253;1269;22307;-63
2023/07/19 06:13:06;;;;;;;6.00;0.20;;;;;;;29.01;32.55;99988.56;91152;1269;138662;-64
2023/07/19 06:15:08;;;;;;;2.00;0.20;;;;;;;28.88;32.45;99990.22;91253;1272;22657;-63
2023/07/19 06:17:12;;;;;;;2.20;0.30;;;;;;;28.82;32.78;99989.84;91112;1270;138551;-61
2023/07/19 06:19:16;;;;;;;1.90;0.60;;;;;;;28.77;32.76;99986.90;91111;1271;22194;-62
2023/07/19 06:21:18;;;;;;;2.80;1.10;;;;;;;28.76;32.90;99986.35;91122;1269;138812;-64
2023/07/19 06:23:21;;;;;;;7.30;0.60;;;;;;;28.76;33.08;99983.77;91235;1270;22439;-64
2023/07/19 06:25:23;;;;;;;8.70;4.50;;;;;;;28.77;33.63;99981.33;91186;1269;137538;-64
2023/07/19 06:27:24;;;;;;;4.50;1.30;;;;;;;28.85;33.30;99976.38;91221;1270;22352;-62
2023/07/19 06:29:26;;;;;;;1.50;1.00;;;;;;;28.95;32.98;99978.02;91105;1269;137617;-63
2023/07/19 06:31:28;;;;;;;2.40;1.50;;;;;;;29.02;33.40;99975.13;91232;1270;22301;-63
2023/07/19 06:33:30;;;;;;;9.10;1.40;;;;;;;29.15;32.32;99973.52;91006;1271;137568;-62
2023/07/19 06:35:33;;;;;;;1.40;1.30;;;;;;;29.21;32.52;99972.95;91110;1272;22235;-66
2023/07/19 06:37:35;;;;;;;3.00;0.20;;;;;;;29.31;32.25;99965.63;91143;1270;138274;-65
2023/07/19 06:39:36;;;;;;;8.60;0.70;;;;;;;29.29;32.19;99961.17;90958;1273;22386;-64
2023/07/19 06:41:38;;;;;;;0.60;0.20;;;;;;;29.19;32.57;99958.67;91124;1269;138171;-65
2023/07/19 06:43:40;;;;;;;3.10;0.20;;;;;;;29.16;32.20;99955.86;91084;1272;22739;-63
2023/07/19 06:45:44;;;;;;;0.80;0.30;;;;;;;28.98;32.28;99959.03;91033;1273;138710;-64
2023/07/19 06:47:46;;;;;;;3.50;0.40;;;;;;;28.79;32.95;99958.33;91221;1270;22399;-63
2023/07/19 06:49:48;;;;;;;3.60;0.20;;;;;;;28.75;33.03;99961.55;91152;1270;137273;-62
2023/07/19 06:51:50;;;;;;;2.30;1.10;;;;;;;28.75;33.12;99954.43;91261;1270;22294;-63
2023/07/19 06:53:51;;;;;;;0.70;0.30;;;;;;;28.77;33.43;99944.86;91115;1269;137277;-63
2023/07/19 06:56:13;;;;;;;2.40;0.40;;;;;;;28.89;32.96;99941.62;91162;1269;139350;-61
2023/07/19 06:58:14;;;;;;;1.60;0.40;;;;;;;28.94;33.05;99940.34;91212;1270;22807;-63
2023/07/19 07:00:16;;;;;;;2.50;0.70;;;;;;;28.98;33.20;99941.02;91084;1272;137772;-63
2023/07/19 07:02:18;;;;;;;3.20;0.50;;;;;;;29.15;32.38;99933.71;91252;1270;22442;-63
2023/07/19 07:04:20;;;;;;;3.10;0.70;;;;;;;29.23;32.17;99925.30;90989;1270;139551;-63
2023/07/19 07:06:22;;;;;;;4.00;0.20;;;;;;;29.15;32.09;99917.64;91207;1270;22440;-61
2023/07/19 07:08:24;;;;;;;0.60;0.20;;;;;;;29.10;32.12;99930.67;91125;1270;141087;-62
2023/07/19 07:10:26;;;;;;;0.80;0.10;;;;;;;28.95;32.29;99930.91;91134;1271;23128;-63
2023/07/19 07:12:27;;;;;;;0.50;0.20;;;;;;;28.82;32.30;99925.98;91140;1270;138053;-63
2023/07/19 07:14:29;;;;;;;2.40;0.20;;;;;;;28.68;32.18;99924.38;91215;1270;22409;-62
2023/07/19 07:16:31;;;;;;;0.90;0.20;;;;;;;28.51;32.83;99919.59;91024;1269;137186;-65
2023/07/19 07:18:33;;;;;;;0.40;0.20;;;;;;;28.41;32.67;99917.16;91196;1269;22354;-63
2023/07/19 07:20:35;;;;;;;3.10;0.10;;;;;;;28.36;32.46;99914.15;90967;1272;139916;-64
2023/07/19 07:22:37;;;;;;;2.00;0.20;;;;;;;28.31;32.79;99911.66;91116;1271;22188;-65
2023/07/19 07:24:40;;;;;;;1.00;0.20;;;;;;;28.25;33.02;99912.06;91135;1270;138064;-64
2023/07/19 07:26:41;;;;;;;3.40;0.20;;;;;;;28.16;33.79;99908.73;91138;1271;23049;-61
2023/07/19 07:28:44;;;;;;;0.90;0.20;;;;;;;28.10;33.57;99912.62;91123;1266;138298;-63
2023/07/19 07:30:45;;;;;;;2.60;0.20;;;;;;;28.05;33.18;99916.33;91221;1270;22981;-63
2023/07/19 07:32:49;;;;;;;0.30;0.20;;;;;;;28.01;33.42;99913.09;91132;1270;137407;-63
2023/07/19 07:34:50;;;;;;;0.40;0.10;;;;;;;27.99;33.53;99913.31;91208;1272;22332;-63
2023/07/19 07:36:52;;;;;;;0.90;0.20;;;;;;;27.84;33.15;99909.90;91000;1271;137651;-62
2023/07/19 07:38:54;;;;;;;1.20;0.20;;;;;;;27.62;33.52;99911.50;91143;1266;23354;-62
2023/07/19 07:41:05;;;;;;;1.20;0.10;;;;;;;27.46;33.88;99912.24;91041;1270;138637;-61
2023/07/19 07:43:06;;;;;;;0.40;0.20;;;;;;;27.38;33.78;99908.95;91251;1269;22299;-62
2023/07/19 07:45:08;;;;;;;0.80;0.30;;;;;;;27.27;33.63;99906.78;91145;1271;139210;-62
2023/07/19 07:47:10;;;;;;;1.90;0.10;;;;;;;27.15;33.76;99903.77;91245;1270;23206;-61
2023/07/19 07:49:12;;;;;;;2.10;0.10;;;;;;;27.05;34.47;99906.41;91145;1269;137132;-62
2023/07/19 07:51:14;;;;;;;3.30;0.10;;;;;;;26.84;34.48;99900.14;91121;1270;22452;-63
2023/07/19 07:53:16;;;;;;;1.80;0.30;;;;;;;26.58;34.74;99902.61;90854;1270;137653;-63
2023/07/19 07:55:17;;;;;;;1.40;0.20;;;;;;;26.36;35.20;99912.40;91244;1270;22323;-62
2023/07/19 07:57:19;;;;;;;1.10;0.10;;;;;;;26.20;35.74;99914.69;91105;1270;138166;-62
2023/07/19 07:59:21;;;;;;;7.00;0.30;;;;;;;26.14;36.01;99914.74;91102;1272;23092;-63
2023/07/19 08:01:22;;;;;;;0.40;0.40;;;;;;;26.12;35.29;99908.94;91068;1270;137362;-62
2023/07/19 08:03:25;;;;;;;3.20;0.90;;;;;;;26.08;34.74;99905.36;91248;1269;23025;-61
2023/07/19 08:05:27;;;;;;;0.20;0.20;;;;;;;26.06;34.25;99907.27;91079;1270;137947;-61
2023/07/19 08:07:29;;;;;;;2.60;0.20;;;;;;;26.06;34.03;99903.65;91256;1270;22334;-62
2023/07/19 08:09:32;;;;;;;0.50;0.10;;;;;;;25.97;34.56;99901.67;91070;1270;137619;-61
2023/07/19 08:11:34;;;;;;;0.40;0.30;;;;;;;25.82;34.36;99900.17;91185;1270;22384;-62
2023/07/19 08:13:37;;;;;;;1.40;0.10;;;;;;;25.67;34.80;99907.83;91128;1263;137363;-62
2023/07/19 08:15:38;;;;;;;0.70;0.20;;;;;;;25.57;35.52;99908.21;91096;1270;23073;-62
2023/07/19 08:17:40;;;;;;;1.30;0.30;;;;;;;25.53;35.46;99907.02;91122;1274;137862;-62
2023/07/19 08:19:42;;;;;;;1.50;0.20;;;;;;;25.53;35.63;99902.98;91230;1275;23204;-64
2023/07/19 08:21:44;;;;;;;3.50;0.20;;;;;;;25.57;35.28;99905.80;90913;1270;242721;-64
2023/07/19 08:24:59;;;;;;;0.70;0.20;;;;;;;25.70;34.69;99894.13;85402;1305;545334;-62
2023/07/19 08:27:21;;;;;;;1.50;0.10;;;;;;;25.80;34.69;99891.64;87306;1285;27206;-62
2023/07/19 08:29:26;;;;;;;0.50;0.10;;;;;;;25.88;34.42;99894.67;87189;1284;140408;-63
2023/07/19 08:31:27;;;;;;;0.20;0.10;;;;;;;25.87;33.05;99893.94;87298;1285;25355;-60
2023/07/19 08:33:29;;;;;;;2.10;0.10;;;;;;;25.87;32.93;99896.86;87255;1285;137729;-61
2023/07/19 08:35:31;;;;;;;0.40;0.10;;;;;;;25.88;33.06;99897.06;87344;1285;22558;-64
2023/07/19 08:37:33;;;;;;;1.20;0.10;;;;;;;25.91;32.86;99896.48;87876;1273;139202;-62
2023/07/19 08:39:35;;;;;;;2.10;0.10;;;;;;;25.92;33.17;99895.66;87769;1272;395624;-60
2023/07/19 08:41:37;;;;;;;1.50;0.10;;;;;;;25.97;33.57;99897.83;88004;1270;138838;-62
2023/07/19 08:43:41;;;;;;;2.20;0.10;;;;;;;26.03;33.62;99894.86;88201;1270;25448;-60
2023/07/19 08:45:42;;;;;;;0.60;0.10;;;;;;;26.13;33.41;99897.41;87908;1272;137997;-63
2023/07/19 08:47:46;;;;;;;2.60;0.10;;;;;;;26.19;33.40;99891.55;87995;1268;22663;-61
2023/07/19 08:49:49;;;;;;;0.20;0.10;;;;;;;26.26;32.86;99888.46;88032;1272;137529;-62
2023/07/19 08:51:52;;;;;;;1.20;0.10;;;;;;;26.27;31.75;99889.19;88203;1257;24260;-61
2023/07/19 08:53:54;;;;;;;3.70;0.10;;;;;;;26.25;31.91;99888.27;88152;1272;138091;-64
2023/07/19 08:55:57;;;;;;;5.50;0.20;;;;;;;26.22;31.88;99883.38;88089;1272;25354;-62
2023/07/19 08:57:59;;;;;;;0.90;0.10;;;;;;;26.23;32.21;99882.61;88218;1272;137455;-63
2023/07/19 09:00:03;;;;;;;0.80;0.30;;;;;;;26.21;32.55;99882.38;88176;1272;22533;-62
2023/07/19 09:02:05;;;;;;;0.20;0.10;;;;;;;26.21;32.84;99884.30;88236;1272;23877;-63
2023/07/19 09:04:09;;;;;;;3.30;0.20;;;;;;;26.20;32.88;99882.67;88047;1271;139858;-61
2023/07/19 09:06:22;;;;;;;0.50;0.10;;;;;;;26.16;32.81;99881.93;88125;1272;24327;-65
2023/07/19 09:08:41;;;;;;;0.50;0.10;;;;;;;26.06;33.09;99881.19;88077;1272;138538;-61
2023/07/19 09:10:44;;;;;;;1.00;0.20;;;;;;;25.92;33.81;99876.92;88201;1271;24264;-63
2023/07/19 09:12:47;;;;;;;1.30;0.10;;;;;;;25.76;33.93;99876.16;88042;1256;139059;-63
2023/07/19 09:14:48;;;;;;;1.10;0.20;;;;;;;25.61;34.41;99874.30;88180;1271;24291;-64
2023/07/19 09:16:50;;;;;;;2.30;0.40;;;;;;;25.52;34.37;99871.69;88112;1272;137092;-64
2023/07/19 09:18:52;;;;;;;4.20;0.10;;;;;;;25.51;34.37;99870.55;88279;1272;24267;-64
2023/07/19 09:20:59;;;;;;;1.20;0.40;;;;;;;25.54;34.48;99867.59;87950;1272;137175;-63
2023/07/19 09:23:07;;;;;;;0.60;0.20;;;;;;;25.60;34.31;99868.09;87864;1274;26523;-63
2023/07/19 09:25:11;;;;;;;0.20;0.10;;;;;;;25.67;34.31;99858.80;88149;1269;138466;-64
2023/07/19 09:27:23;;;;;;;0.20;0.10;;;;;;;25.73;34.24;99855.09;88277;1270;22552;-63
2023/07/19 09:29:30;;;;;;;2.40;0.60;;;;;;;25.73;33.93;99854.60;87914;1272;140066;-63